RJOF weather

Hofu Airport
Yamaguchi Prefecture, Japan

Public forecast

Using degrees Celsius for public forecast. Weather courtesy of forecast.io.

METAR (pilot weather report)

Retrieved 2019/05/19 21:16 UTC (44 minutes ago):

RJOF 192116Z 09011KT 9999 -SHRA FEW020 BKN045 21/15 Q1007 RMK 1CU020 7CU045 A2976

TAF (pilot weather forecast)

Closest forecast is Kitakyūshū Airport, 28.0 nm (51.9 km) WSW. Retrieved 2019/05/19 18:00 UTC (4 hours ago):

TAF RJFR 191709Z 1918/2100 11011KT 7000 -SHRA FEW005 SCT010 BKN015 TEMPO 1920/2003 4000 -SHRA BR FEW003 SCT005 BKN008 BECMG 2003/2005 32012KT